Richelieu — ZDHS7 — position and weather

sailwx.info

Track history (hours):
 
Tides and Currents Weather Stations Pressure Air Temp Water Temp Dewpoint Dewpoint Depression Visibility Wind Speed Wind Dir Waves Ship Positions

Richelieu

Last reported at 2018-Apr-21 17:12 UTC. Time now 2018-Apr-22 03:08 UTC.
Position N 39°24' W 009°50'.

Length 89 m; draft 5.5 m.

Type: Cargo ship. MMSI: 236354000.

Date/timePositionNaut miles runAvg speedWind from/ knotsBaromVisibWave heightAir tempDewpointWater temp
2018-Apr-21 17:12N 39°24' W 009°50'4 9.3
2018-Apr-21 16:45N 39°20' W 009°50'2 9.3
2018-Apr-21 16:29N 39°17' W 009°50'5 9.3
2018-Apr-21 15:57N 39°12' W 009°50'4 9.3
2018-Apr-21 15:30N 39°08' W 009°50'5 9.2
2018-Apr-21 14:59N 39°03' W 009°50'4 9.3
2018-Apr-21 14:30N 38°59' W 009°50'5 9.2
2018-Apr-21 13:56N 38°54' W 009°50'4 9.0
2018-Apr-21 13:30N 38°50' W 009°51'5 9.2
2018-Apr-21 13:00N 38°45' W 009°51'4 8.8
2018-Apr-21 12:31N 38°41' W 009°50'4 8.7
2018-Apr-21 12:00N 38°37' W 009°49'4 8.8
2018-Apr-21 11:31N 38°32' W 009°48'5 9.0
2018-Apr-21 11:00N 38°28' W 009°46'5 8.9
2018-Apr-21 10:30N 38°24' W 009°45'4 8.8
2018-Apr-21 10:01N 38°19' W 009°43'5 8.7
2018-Apr-21 09:24N 38°14' W 009°42'3 8.6
2018-Apr-21 08:59N 38°11' W 009°41'4 8.4
2018-Apr-21 08:31N 38°07' W 009°39'4 8.2
2018-Apr-21 08:00N 38°03' W 009°38'0 0.8
2018-Apr-21 07:30N 38°02' W 009°38'0 0.5
2018-Apr-21 07:00N 38°03' W 009°38'0 0.5
2018-Apr-21 06:30N 38°03' W 009°39'4 7.7
2018-Apr-21 06:00N 37°59' W 009°38'5 8.4
2018-Apr-21 05:24N 37°54' W 009°36'3 8.5
2018-Apr-21 05:00N 37°51' W 009°35'4 8.5
2018-Apr-21 04:30N 37°46' W 009°34'4 8.6
2018-Apr-21 04:00N 37°42' W 009°33'215 8.1
2018-Apr-20 01:27N 35°58' W 005°38'5 9.2
2018-Apr-20 00:54N 35°59' W 005°31'3 8.8
2018-Apr-20 00:30N 36°00' W 005°27'4 7.5
2018-Apr-20 00:00N 36°03' W 005°24'5 9.3
2018-Apr-19 23:30N 36°08' W 005°23'2 3.4
2018-Apr-19 22:59N 36°09' W 005°22'0 0.0
2018-Apr-19 22:29N 36°09' W 005°22'0 0.0
2018-Apr-19 21:59N 36°09' W 005°22'0 0.0
2018-Apr-19 21:29N 36°09' W 005°22'0 0.0
2018-Apr-19 20:59N 36°09' W 005°22'0 0.0
2018-Apr-19 20:29N 36°09' W 005°22'0 0.0
2018-Apr-19 19:59N 36°09' W 005°22'2 0.9
2018-Apr-19 17:51N 36°07' W 005°23'3 8.1
2018-Apr-19 17:30N 36°05' W 005°21'4 7.9
2018-Apr-19 17:00N 36°03' W 005°16'261 9.3
2018-Apr-18 12:49N 36°45' E 000°04'4 9.9
2018-Apr-18 12:23N 36°45' E 000°09'  
Track history (hours):
 
Tides and Currents Weather Stations Pressure Air Temp Water Temp Dewpoint Dewpoint Depression Visibility Wind Speed Wind Dir Waves Ship Positions

Richelieu

Last reported at 2018-Apr-21 17:12 UTC. Time now 2018-Apr-22 03:08 UTC.
Position N 39°24' W 009°50'.

Length 89 m; draft 5.5 m.

Type: Cargo ship. MMSI: 236354000.

Date/timePositionNaut miles runAvg speedWind from/ knotsBaromVisibWave heightAir tempDewpointWater temp
2018-Apr-21 17:12N 39°24' W 009°50'4 9.3
2018-Apr-21 16:45N 39°20' W 009°50'2 9.3
2018-Apr-21 16:29N 39°17' W 009°50'5 9.3
2018-Apr-21 15:57N 39°12' W 009°50'4 9.3
2018-Apr-21 15:30N 39°08' W 009°50'5 9.2
2018-Apr-21 14:59N 39°03' W 009°50'4 9.3
2018-Apr-21 14:30N 38°59' W 009°50'5 9.2
2018-Apr-21 13:56N 38°54' W 009°50'4 9.0
2018-Apr-21 13:30N 38°50' W 009°51'5 9.2
2018-Apr-21 13:00N 38°45' W 009°51'4 8.8
2018-Apr-21 12:31N 38°41' W 009°50'4 8.7
2018-Apr-21 12:00N 38°37' W 009°49'4 8.8
2018-Apr-21 11:31N 38°32' W 009°48'5 9.0
2018-Apr-21 11:00N 38°28' W 009°46'5 8.9
2018-Apr-21 10:30N 38°24' W 009°45'4 8.8
2018-Apr-21 10:01N 38°19' W 009°43'5 8.7
2018-Apr-21 09:24N 38°14' W 009°42'3 8.6
2018-Apr-21 08:59N 38°11' W 009°41'4 8.4
2018-Apr-21 08:31N 38°07' W 009°39'4 8.2
2018-Apr-21 08:00N 38°03' W 009°38'0 0.8
2018-Apr-21 07:30N 38°02' W 009°38'0 0.5
2018-Apr-21 07:00N 38°03' W 009°38'0 0.5
2018-Apr-21 06:30N 38°03' W 009°39'4 7.7
2018-Apr-21 06:00N 37°59' W 009°38'5 8.4
2018-Apr-21 05:24N 37°54' W 009°36'3 8.5
2018-Apr-21 05:00N 37°51' W 009°35'4 8.5
2018-Apr-21 04:30N 37°46' W 009°34'4 8.6
2018-Apr-21 04:00N 37°42' W 009°33'215 8.1
2018-Apr-20 01:27N 35°58' W 005°38'5 9.2
2018-Apr-20 00:54N 35°59' W 005°31'3 8.8
2018-Apr-20 00:30N 36°00' W 005°27'4 7.5
2018-Apr-20 00:00N 36°03' W 005°24'5 9.3
2018-Apr-19 23:30N 36°08' W 005°23'2 3.4
2018-Apr-19 22:59N 36°09' W 005°22'0 0.0
2018-Apr-19 22:29N 36°09' W 005°22'0 0.0
2018-Apr-19 21:59N 36°09' W 005°22'0 0.0
2018-Apr-19 21:29N 36°09' W 005°22'0 0.0
2018-Apr-19 20:59N 36°09' W 005°22'0 0.0
2018-Apr-19 20:29N 36°09' W 005°22'0 0.0
2018-Apr-19 19:59N 36°09' W 005°22'2 0.9
2018-Apr-19 17:51N 36°07' W 005°23'3 8.1
2018-Apr-19 17:30N 36°05' W 005°21'4 7.9
2018-Apr-19 17:00N 36°03' W 005°16'261 9.3
2018-Apr-18 12:49N 36°45' E 000°04'4 9.9
2018-Apr-18 12:23N 36°45' E 000°09'  

Dump ship's entire track history